createdAt,value
2017-12-10T00:00:30.713Z,1.16
2017-12-10T00:01:30.698Z,1.14
2017-12-10T00:02:30.685Z,1.10
2017-12-10T00:03:30.676Z,1.14
2017-12-10T00:04:30.663Z,1.12
2017-12-10T00:05:30.645Z,1.13
2017-12-10T00:06:30.632Z,1.08
2017-12-10T00:07:30.615Z,1.08
2017-12-10T00:08:30.603Z,1.13
2017-12-10T00:09:30.588Z,1.13
2017-12-10T00:10:30.576Z,1.10
2017-12-10T00:11:30.560Z,1.16
2017-12-10T00:12:30.552Z,1.14
2017-12-10T00:13:30.532Z,1.13
2017-12-10T00:14:30.517Z,1.16
2017-12-10T00:15:30.503Z,1.10
2017-12-10T00:16:30.490Z,1.10
2017-12-10T00:17:30.474Z,1.06
2017-12-10T00:18:30.463Z,1.02
2017-12-10T00:19:30.449Z,1.04
2017-12-10T00:20:30.433Z,0.99
2017-12-10T00:21:30.419Z,1.01
2017-12-10T00:22:30.404Z,1.01
2017-12-10T00:23:30.403Z,0.98
2017-12-10T00:24:30.377Z,0.98
2017-12-10T00:25:30.384Z,1.04
2017-12-10T00:26:30.358Z,1.05
2017-12-10T00:27:30.336Z,1.08
2017-12-10T00:28:30.322Z,1.01
2017-12-10T00:29:30.308Z,1.01
2017-12-10T00:30:30.295Z,1.02
2017-12-10T00:31:30.280Z,1.05
2017-12-10T00:32:30.267Z,1.13
2017-12-10T00:33:30.267Z,1.17
2017-12-10T00:34:30.236Z,1.13
2017-12-10T00:35:30.225Z,1.16
2017-12-10T00:36:30.209Z,1.17
2017-12-10T00:37:30.195Z,1.19
2017-12-10T00:38:30.181Z,1.17
2017-12-10T00:39:30.168Z,1.23
2017-12-10T00:40:30.155Z,1.23
2017-12-10T00:41:30.139Z,1.12
2017-12-10T00:42:30.125Z,1.13
2017-12-10T00:43:30.115Z,1.19
2017-12-10T00:44:30.096Z,1.16
2017-12-10T00:45:30.084Z,1.14
2017-12-10T00:46:30.069Z,1.14
2017-12-10T00:47:30.057Z,1.16
2017-12-10T00:48:30.055Z,1.20
2017-12-10T00:49:30.028Z,1.17
2017-12-10T00:50:30.014Z,1.16
2017-12-10T00:51:29.999Z,1.19
2017-12-10T00:52:29.985Z,1.12
2017-12-10T00:53:29.977Z,1.14
2017-12-10T00:54:29.957Z,1.16
2017-12-10T00:55:29.949Z,1.19
2017-12-10T00:56:29.972Z,1.17
2017-12-10T00:57:29.913Z,1.17
2017-12-10T00:58:29.904Z,1.05
2017-12-10T00:59:29.888Z,1.17
2017-12-10T01:00:29.880Z,1.06
2017-12-10T01:01:29.858Z,1.10
2017-12-10T01:02:29.846Z,1.06
2017-12-10T01:03:29.836Z,1.14
2017-12-10T01:04:29.816Z,1.13
2017-12-10T01:05:29.801Z,1.06
2017-12-10T01:06:29.788Z,1.14
2017-12-10T01:07:29.774Z,1.17
2017-12-10T01:08:29.764Z,1.12
2017-12-10T01:09:29.744Z,1.08
2017-12-10T01:10:29.733Z,1.14
2017-12-10T01:11:29.716Z,1.17
2017-12-10T01:12:29.703Z,1.16
2017-12-10T01:13:29.692Z,1.13
2017-12-10T01:14:29.675Z,1.13
2017-12-10T01:15:29.667Z,1.13
2017-12-10T01:16:29.644Z,1.16
2017-12-10T01:17:29.634Z,1.14
2017-12-10T01:18:29.677Z,1.12
2017-12-10T01:19:29.603Z,1.13
2017-12-10T01:20:29.596Z,1.16
2017-12-10T01:21:29.573Z,1.10
2017-12-10T01:22:29.616Z,1.16
2017-12-10T01:23:29.549Z,1.08
2017-12-10T01:24:29.531Z,1.02
2017-12-10T01:25:29.521Z,1.10
2017-12-10T01:26:29.507Z,1.13
2017-12-10T01:27:29.495Z,1.14
2017-12-10T01:28:29.481Z,1.14
2017-12-10T01:29:29.463Z,1.17
2017-12-10T01:30:29.452Z,1.16
2017-12-10T01:31:29.445Z,1.14
2017-12-10T01:32:29.419Z,1.13
2017-12-10T01:33:29.410Z,1.20
2017-12-10T01:34:29.390Z,1.14
2017-12-10T01:35:29.380Z,1.19
2017-12-10T01:36:29.363Z,1.13
2017-12-10T01:37:29.349Z,1.12
2017-12-10T01:38:29.339Z,1.17
2017-12-10T01:39:29.324Z,1.13
2017-12-10T01:40:29.317Z,1.13
2017-12-10T01:41:29.292Z,1.16
2017-12-10T01:42:29.281Z,1.10
2017-12-10T01:43:29.269Z,1.17
2017-12-10T01:44:29.250Z,1.14
2017-12-10T01:45:29.239Z,1.17
2017-12-10T01:46:29.224Z,1.13
2017-12-10T01:47:29.208Z,1.17
2017-12-10T01:48:29.195Z,1.16
2017-12-10T01:49:29.179Z,1.13
2017-12-10T01:50:29.196Z,1.16
2017-12-10T01:51:29.151Z,1.13
2017-12-10T01:52:29.138Z,1.16
2017-12-10T01:53:29.127Z,1.13
2017-12-10T01:54:29.108Z,1.16
2017-12-10T01:55:29.096Z,1.16
2017-12-10T01:56:29.080Z,1.23
2017-12-10T01:57:29.067Z,1.20
2017-12-10T01:58:29.057Z,1.32
2017-12-10T01:59:29.038Z,1.28
2017-12-10T02:00:29.023Z,1.19
2017-12-10T02:01:29.014Z,1.16
2017-12-10T02:02:29.002Z,1.14
2017-12-10T02:03:28.989Z,1.13
2017-12-10T02:04:28.966Z,1.10
2017-12-10T02:05:28.954Z,1.16
2017-12-10T02:06:28.940Z,1.10
2017-12-10T02:07:28.925Z,1.14
2017-12-10T02:08:28.921Z,1.16
2017-12-10T02:09:28.897Z,1.13
2017-12-10T02:10:28.883Z,1.10
2017-12-10T02:11:28.868Z,1.16
2017-12-10T02:12:28.853Z,1.10
2017-12-10T02:13:28.851Z,1.13
2017-12-10T02:14:49.844Z,1.12
2017-12-10T02:15:28.811Z,1.17
2017-12-10T02:16:28.800Z,1.16
2017-12-10T02:17:28.781Z,1.14
2017-12-10T02:18:28.773Z,1.10
2017-12-10T02:19:28.759Z,1.19
2017-12-10T02:20:28.740Z,1.19
2017-12-10T02:21:28.731Z,1.14
2017-12-10T02:22:28.712Z,1.08
2017-12-10T02:23:28.696Z,1.13
2017-12-10T02:24:28.683Z,1.17
2017-12-10T02:25:28.668Z,1.17
2017-12-10T02:26:28.663Z,1.16
2017-12-10T02:27:28.646Z,1.13
2017-12-10T02:28:28.631Z,1.13
2017-12-10T02:29:28.612Z,1.12
2017-12-10T02:30:28.598Z,1.20
2017-12-10T02:31:28.593Z,1.17
2017-12-10T02:32:28.570Z,1.16
2017-12-10T02:33:28.554Z,1.19
2017-12-10T02:34:28.543Z,1.20
2017-12-10T02:35:28.528Z,1.14
2017-12-10T02:36:28.513Z,1.14
2017-12-10T02:37:28.504Z,1.12
2017-12-10T02:38:28.492Z,1.14
2017-12-10T02:39:28.472Z,1.14
2017-12-10T02:40:28.455Z,1.14
2017-12-10T02:41:28.442Z,1.10
2017-12-10T02:42:28.428Z,1.12
2017-12-10T02:43:28.421Z,1.14
2017-12-10T02:44:28.401Z,1.14
2017-12-10T02:45:28.388Z,1.12
2017-12-10T02:46:28.381Z,1.12
2017-12-10T02:47:28.359Z,1.12
2017-12-10T02:48:28.390Z,1.14
2017-12-10T02:49:28.330Z,1.14
2017-12-10T02:50:28.326Z,1.26
2017-12-10T02:51:28.303Z,1.26
2017-12-10T02:52:28.289Z,1.23
2017-12-10T02:53:28.275Z,1.16
2017-12-10T02:54:28.262Z,1.28
2017-12-10T02:55:28.249Z,1.17
2017-12-10T02:56:28.233Z,1.22
2017-12-10T02:57:28.217Z,1.22
2017-12-10T02:58:28.209Z,1.23
2017-12-10T02:59:28.189Z,1.22
2017-12-10T03:00:28.177Z,1.23
2017-12-10T03:01:28.162Z,1.23
2017-12-10T03:02:28.156Z,1.26
2017-12-10T03:03:28.135Z,1.26
2017-12-10T03:04:28.120Z,1.20
2017-12-10T03:05:28.106Z,1.14
2017-12-10T03:06:28.091Z,1.26
2017-12-10T03:07:28.080Z,1.23
2017-12-10T03:08:28.064Z,1.13
2017-12-10T03:09:28.049Z,1.19
2017-12-10T03:10:28.042Z,1.22
2017-12-10T03:11:28.022Z,1.23
2017-12-10T03:12:28.006Z,1.22
2017-12-10T03:13:27.992Z,1.23
2017-12-10T03:14:27.981Z,1.28
2017-12-10T03:15:27.965Z,1.35
2017-12-10T03:16:27.950Z,1.35
2017-12-10T03:17:27.940Z,1.34
2017-12-10T03:18:27.932Z,1.28
2017-12-10T03:19:27.922Z,1.40
2017-12-10T03:20:27.895Z,1.35
2017-12-10T03:21:27.881Z,1.37
2017-12-10T03:22:27.867Z,1.28
2017-12-10T03:23:27.855Z,1.28
2017-12-10T03:24:27.842Z,1.28
2017-12-10T03:25:27.826Z,1.30
2017-12-10T03:26:27.811Z,1.31
2017-12-10T03:27:27.799Z,1.28
2017-12-10T03:28:27.788Z,1.34
2017-12-10T03:29:27.770Z,1.35
2017-12-10T03:30:27.755Z,1.35
2017-12-10T03:31:27.744Z,1.30
2017-12-10T03:32:27.727Z,1.41
2017-12-10T03:33:27.712Z,1.40
2017-12-10T03:34:27.699Z,1.38
2017-12-10T03:35:27.688Z,1.30
2017-12-10T03:36:27.671Z,1.31
2017-12-10T03:37:27.660Z,1.35
2017-12-10T03:38:27.648Z,1.34
2017-12-10T03:39:27.630Z,1.34
2017-12-10T03:40:27.617Z,1.38
2017-12-10T03:41:27.602Z,1.31
2017-12-10T03:42:27.619Z,1.31
2017-12-10T03:43:27.580Z,1.32
2017-12-10T03:44:27.558Z,1.31
2017-12-10T03:45:27.546Z,1.30
2017-12-10T03:46:27.534Z,1.30
2017-12-10T03:47:27.519Z,1.28
2017-12-10T03:48:27.519Z,1.30
2017-12-10T03:49:27.490Z,1.34
2017-12-10T03:50:27.474Z,1.32
2017-12-10T03:51:27.461Z,1.32
2017-12-10T03:52:27.447Z,1.32
2017-12-10T03:53:27.438Z,1.28
2017-12-10T03:54:27.418Z,1.30
2017-12-10T03:55:27.405Z,1.30
2017-12-10T03:56:27.393Z,1.28
2017-12-10T03:57:27.376Z,1.26
2017-12-10T03:58:27.364Z,1.30
2017-12-10T03:59:27.352Z,1.30
2017-12-10T04:00:27.338Z,1.30
2017-12-10T04:01:27.322Z,1.32
2017-12-10T04:02:27.309Z,1.35
2017-12-10T04:03:27.306Z,1.40
2017-12-10T04:04:27.277Z,1.40
2017-12-10T04:05:27.269Z,1.37
2017-12-10T04:06:27.252Z,1.32
2017-12-10T04:07:27.237Z,1.26
2017-12-10T04:08:27.223Z,1.30
2017-12-10T04:09:27.208Z,1.30
2017-12-10T04:10:27.198Z,1.31
2017-12-10T04:11:27.181Z,1.26
2017-12-10T04:12:27.169Z,1.35
2017-12-10T04:13:27.155Z,1.28
2017-12-10T04:14:27.144Z,1.24
2017-12-10T04:15:27.125Z,1.24
2017-12-10T04:16:27.111Z,1.24
2017-12-10T04:17:27.102Z,1.23
2017-12-10T04:18:27.084Z,1.24
2017-12-10T04:19:27.072Z,1.24
2017-12-10T04:20:27.057Z,1.20
2017-12-10T04:21:27.041Z,1.22
2017-12-10T04:22:27.028Z,1.23
2017-12-10T04:23:27.013Z,1.26
2017-12-10T04:24:27.000Z,1.26
2017-12-10T04:25:26.994Z,1.26
2017-12-10T04:26:26.972Z,1.26
2017-12-10T04:27:26.961Z,1.14
2017-12-10T04:28:26.948Z,1.14
2017-12-10T04:29:26.931Z,1.14
2017-12-10T04:30:26.916Z,1.17
2017-12-10T04:31:26.903Z,1.12
2017-12-10T04:32:26.889Z,1.12
2017-12-10T04:33:26.874Z,1.06
2017-12-10T04:34:26.862Z,1.10
2017-12-10T04:35:26.849Z,1.08
2017-12-10T04:36:26.831Z,1.05
2017-12-10T04:37:26.818Z,0.99
2017-12-10T04:38:26.811Z,1.05
2017-12-10T04:39:26.790Z,0.95
2017-12-10T04:40:26.778Z,1.01
2017-12-10T04:41:26.767Z,1.01
2017-12-10T04:42:26.751Z,1.05
2017-12-10T04:43:26.736Z,0.94
2017-12-10T04:44:26.721Z,0.94
2017-12-10T04:45:26.707Z,0.98
2017-12-10T04:46:26.692Z,0.95
2017-12-10T04:47:26.678Z,0.83
2017-12-10T04:48:26.665Z,0.95
2017-12-10T04:49:26.657Z,0.88
2017-12-10T04:50:26.639Z,0.88
2017-12-10T04:51:26.625Z,0.92
2017-12-10T04:52:26.609Z,0.95
2017-12-10T04:53:26.612Z,0.96
2017-12-10T04:54:26.617Z,0.95
2017-12-10T04:55:26.567Z,0.87
2017-12-10T04:56:26.555Z,0.86
2017-12-10T04:57:26.537Z,0.83
2017-12-10T04:58:26.525Z,0.86
2017-12-10T04:59:26.513Z,0.83
2017-12-10T05:00:26.498Z,0.84
2017-12-10T05:01:26.482Z,0.84
2017-12-10T05:02:26.476Z,0.84
2017-12-10T05:03:26.481Z,0.86
2017-12-10T05:04:26.439Z,0.88
2017-12-10T05:05:26.427Z,0.81
2017-12-10T05:06:26.413Z,0.88
2017-12-10T05:07:26.396Z,0.88
2017-12-10T05:08:26.388Z,0.84
2017-12-10T05:09:26.367Z,0.87
2017-12-10T05:10:26.353Z,0.87
2017-12-10T05:11:26.344Z,0.88
2017-12-10T05:12:26.324Z,0.88
2017-12-10T05:13:26.313Z,0.88
2017-12-10T05:14:26.296Z,0.88
2017-12-10T05:15:26.283Z,0.88
2017-12-10T05:16:26.276Z,0.83
2017-12-10T05:17:26.253Z,0.87
2017-12-10T05:18:26.244Z,0.83
2017-12-10T05:19:26.227Z,0.86
2017-12-10T05:20:26.212Z,0.83
2017-12-10T05:21:26.198Z,0.83
2017-12-10T05:22:26.186Z,0.88
2017-12-10T05:23:26.171Z,0.83
2017-12-10T05:24:26.155Z,0.80
2017-12-10T05:25:26.141Z,0.80
2017-12-10T05:26:26.130Z,0.78
2017-12-10T05:27:26.117Z,0.76
2017-12-10T05:28:26.103Z,0.84
2017-12-10T05:29:26.085Z,0.70
2017-12-10T05:30:26.069Z,0.77
2017-12-10T05:31:26.056Z,0.77
2017-12-10T05:32:26.041Z,0.73
2017-12-10T05:33:26.028Z,0.78
2017-12-10T05:34:26.013Z,0.80
2017-12-10T05:35:26.001Z,0.80
2017-12-10T05:36:25.983Z,0.77
2017-12-10T05:37:25.971Z,0.78
2017-12-10T05:38:25.957Z,0.76
2017-12-10T05:39:25.942Z,0.73
2017-12-10T05:40:25.929Z,0.78
2017-12-10T05:41:25.914Z,0.81
2017-12-10T05:42:25.901Z,0.70
2017-12-10T05:43:25.887Z,0.77
2017-12-10T05:44:25.870Z,0.70
2017-12-10T05:45:25.860Z,0.77
2017-12-10T05:46:25.842Z,0.77
2017-12-10T05:47:25.832Z,0.77
2017-12-10T05:48:25.813Z,0.74
2017-12-10T05:49:25.801Z,0.76
2017-12-10T05:50:25.791Z,0.77
2017-12-10T05:51:25.771Z,0.81
2017-12-10T05:52:25.758Z,0.73
2017-12-10T05:53:25.747Z,0.76
2017-12-10T05:54:25.729Z,0.73
2017-12-10T05:55:25.713Z,0.73
2017-12-10T05:56:25.700Z,0.74
2017-12-10T05:57:25.688Z,0.70
2017-12-10T05:58:25.671Z,0.80
2017-12-10T05:59:25.657Z,0.74
2017-12-10T06:00:25.652Z,0.70
2017-12-10T06:01:25.631Z,0.74
2017-12-10T06:02:25.616Z,0.74
2017-12-10T06:03:25.601Z,0.76
2017-12-10T06:04:25.586Z,0.77
2017-12-10T06:05:25.573Z,0.73
2017-12-10T06:06:25.559Z,0.78
2017-12-10T06:07:25.545Z,0.76
2017-12-10T06:08:25.533Z,0.73
2017-12-10T06:09:25.516Z,0.76
2017-12-10T06:10:25.500Z,0.74
2017-12-10T06:11:25.520Z,0.73
2017-12-10T06:12:25.474Z,0.77
2017-12-10T06:13:25.460Z,0.81
2017-12-10T06:14:25.446Z,0.73
2017-12-10T06:15:25.431Z,0.78
2017-12-10T06:16:25.416Z,0.73
2017-12-10T06:17:25.405Z,0.77
2017-12-10T06:18:25.388Z,0.77
2017-12-10T06:19:25.373Z,0.77
2017-12-10T06:20:25.360Z,0.74
2017-12-10T06:21:25.345Z,0.73
2017-12-10T06:22:25.332Z,0.78
2017-12-10T06:23:25.317Z,0.73
2017-12-10T06:24:25.306Z,0.78
2017-12-10T06:25:25.289Z,0.78
2017-12-10T06:26:25.276Z,0.80
2017-12-10T06:27:25.262Z,0.83
2017-12-10T06:28:25.245Z,0.80
2017-12-10T06:29:25.236Z,0.77
2017-12-10T06:30:25.221Z,0.76
2017-12-10T06:31:25.204Z,0.83
2017-12-10T06:32:25.194Z,0.74
2017-12-10T06:33:25.175Z,0.69
2017-12-10T06:34:25.161Z,0.69
2017-12-10T06:35:25.169Z,0.77
2017-12-10T06:36:25.137Z,0.76
2017-12-10T06:37:25.120Z,0.78
2017-12-10T06:38:25.106Z,0.81
2017-12-10T06:39:25.097Z,0.78
2017-12-10T06:40:25.076Z,0.83
2017-12-10T06:41:25.067Z,0.80
2017-12-10T06:42:25.047Z,0.81
2017-12-10T06:43:25.038Z,0.84
2017-12-10T06:44:25.040Z,0.76
2017-12-10T06:45:25.007Z,0.83
2017-12-10T06:46:24.994Z,0.80
2017-12-10T06:47:24.979Z,0.83
2017-12-10T06:48:24.964Z,0.83
2017-12-10T06:49:24.948Z,0.80
2017-12-10T06:50:24.935Z,0.84
2017-12-10T06:51:24.919Z,0.88
2017-12-10T06:52:24.906Z,0.86
2017-12-10T06:53:24.891Z,0.86
2017-12-10T06:54:24.881Z,0.88
2017-12-10T06:55:24.863Z,0.87
2017-12-10T06:56:24.856Z,0.84
2017-12-10T06:57:24.834Z,0.86
2017-12-10T06:58:24.821Z,0.83
2017-12-10T06:59:24.808Z,0.81
2017-12-10T07:00:24.793Z,0.80
2017-12-10T07:01:24.788Z,0.91
2017-12-10T07:02:24.769Z,0.91
2017-12-10T07:03:24.749Z,0.86
2017-12-10T07:04:24.733Z,0.80
2017-12-10T07:05:24.721Z,0.86
2017-12-10T07:06:24.707Z,0.88
2017-12-10T07:07:24.693Z,0.81
2017-12-10T07:08:24.679Z,0.76
2017-12-10T07:09:24.665Z,0.81
2017-12-10T07:10:24.651Z,0.76
2017-12-10T07:11:24.637Z,0.87
2017-12-10T07:12:24.622Z,0.76
2017-12-10T07:13:25.191Z,0.81
2017-12-10T07:14:24.594Z,0.80
2017-12-10T07:15:24.580Z,0.83
2017-12-10T07:16:24.563Z,0.91
2017-12-10T07:17:24.553Z,0.78
2017-12-10T07:18:24.540Z,0.78
2017-12-10T07:19:24.521Z,0.73
2017-12-10T07:20:24.507Z,0.74
2017-12-10T07:21:24.497Z,0.69
2017-12-10T07:22:24.486Z,0.83
2017-12-10T07:23:24.466Z,0.74
2017-12-10T07:24:24.452Z,0.77
2017-12-10T07:25:24.436Z,0.77
2017-12-10T07:26:25.187Z,0.77
2017-12-10T07:27:24.409Z,0.74
2017-12-10T07:28:24.396Z,0.76
2017-12-10T07:29:24.381Z,0.76
2017-12-10T07:30:24.366Z,0.74
2017-12-10T07:31:24.351Z,0.77
2017-12-10T07:32:24.342Z,0.77
2017-12-10T07:33:25.195Z,0.80
2017-12-10T07:34:24.312Z,0.76
2017-12-10T07:35:24.295Z,0.76
2017-12-10T07:36:24.291Z,0.81
2017-12-10T07:37:24.276Z,0.70
2017-12-10T07:38:26.181Z,0.77
2017-12-10T07:39:24.239Z,0.80
2017-12-10T07:40:24.231Z,0.68
2017-12-10T07:41:24.212Z,0.73
2017-12-10T07:42:25.192Z,0.76
2017-12-10T07:43:24.181Z,0.78
2017-12-10T07:44:24.165Z,0.81
2017-12-10T07:45:24.152Z,0.74
2017-12-10T07:46:24.137Z,0.77
2017-12-10T07:47:24.689Z,0.77
2017-12-10T07:48:24.112Z,0.77
2017-12-10T07:49:24.096Z,0.77
2017-12-10T07:50:24.082Z,0.74
2017-12-10T07:51:24.070Z,0.74
2017-12-10T07:52:24.053Z,0.78
2017-12-10T07:53:24.039Z,0.78
2017-12-10T07:54:24.024Z,0.80
2017-12-10T07:55:24.011Z,0.80
2017-12-10T07:56:23.996Z,0.80
2017-12-10T07:57:23.981Z,0.78
2017-12-10T07:58:23.988Z,0.74
2017-12-10T07:59:23.954Z,0.81
2017-12-10T08:00:23.938Z,0.80
2017-12-10T08:01:23.930Z,0.77
2017-12-10T08:02:23.930Z,0.80
2017-12-10T08:03:23.897Z,0.81
2017-12-10T08:04:23.884Z,0.81
2017-12-10T08:05:23.869Z,0.81
2017-12-10T08:06:23.857Z,0.78
2017-12-10T08:07:23.841Z,0.80
2017-12-10T08:08:23.827Z,0.78
2017-12-10T08:09:23.816Z,0.76
2017-12-10T08:10:23.796Z,0.83
2017-12-10T08:11:23.783Z,0.88
2017-12-10T08:12:23.768Z,0.86
2017-12-10T08:13:23.753Z,0.83
2017-12-10T08:14:23.744Z,0.81
2017-12-10T08:15:23.727Z,0.91
2017-12-10T08:16:23.711Z,0.91
2017-12-10T08:17:23.701Z,0.78
2017-12-10T08:18:23.682Z,0.87
2017-12-10T08:19:23.671Z,0.83
2017-12-10T08:20:23.653Z,0.92
2017-12-10T08:21:23.642Z,0.88
2017-12-10T08:22:23.627Z,0.84
2017-12-10T08:23:23.612Z,0.84
2017-12-10T08:24:23.598Z,0.87
2017-12-10T08:25:23.608Z,0.84
2017-12-10T08:26:23.570Z,0.86
2017-12-10T08:27:23.560Z,0.87
2017-12-10T08:28:23.539Z,0.84
2017-12-10T08:29:23.527Z,0.81
2017-12-10T08:30:23.514Z,0.86
2017-12-10T08:31:23.498Z,0.83
2017-12-10T08:32:23.488Z,0.94
2017-12-10T08:33:23.470Z,0.80
2017-12-10T08:34:23.456Z,0.94
2017-12-10T08:35:23.443Z,0.88
2017-12-10T08:36:23.430Z,0.81
2017-12-10T08:37:23.413Z,0.96
2017-12-10T08:38:23.401Z,0.96
2017-12-10T08:39:23.384Z,0.98
2017-12-10T08:40:23.369Z,0.98
2017-12-10T08:41:23.355Z,0.96
2017-12-10T08:42:23.347Z,0.95
2017-12-10T08:43:23.333Z,0.91
2017-12-10T08:44:23.313Z,0.95
2017-12-10T08:45:23.306Z,0.96
2017-12-10T08:46:23.286Z,0.91
2017-12-10T08:47:23.272Z,0.96
2017-12-10T08:48:23.255Z,0.98
2017-12-10T08:49:23.243Z,0.96
2017-12-10T08:50:23.230Z,0.92
2017-12-10T08:51:23.260Z,1.02
2017-12-10T08:52:23.199Z,0.95
2017-12-10T08:53:23.187Z,0.94
2017-12-10T08:54:23.176Z,0.96
2017-12-10T08:55:23.159Z,1.04
2017-12-10T08:56:23.203Z,1.04
2017-12-10T08:57:23.132Z,1.05
2017-12-10T08:58:23.116Z,0.96
2017-12-10T08:59:23.105Z,0.99
2017-12-10T09:00:23.089Z,1.02
2017-12-10T09:01:23.075Z,1.01
2017-12-10T09:02:23.060Z,1.06
2017-12-10T09:03:23.052Z,1.01
2017-12-10T09:04:23.031Z,0.94
2017-12-10T09:05:23.018Z,0.99
2017-12-10T09:06:23.085Z,0.96
2017-12-10T09:07:22.989Z,1.04
2017-12-10T09:08:22.984Z,1.05
2017-12-10T09:09:22.961Z,1.05
2017-12-10T09:10:22.947Z,1.05
2017-12-10T09:11:22.939Z,0.99
2017-12-10T09:12:22.983Z,0.98
2017-12-10T09:13:22.908Z,1.02
2017-12-10T09:14:22.892Z,0.96
2017-12-10T09:15:22.880Z,0.96
2017-12-10T09:16:22.863Z,0.96
2017-12-10T09:17:22.888Z,0.95
2017-12-10T09:18:22.835Z,0.94
2017-12-10T09:19:22.826Z,1.06
2017-12-10T09:20:22.811Z,0.96
2017-12-10T09:21:22.799Z,0.95
2017-12-10T09:22:22.786Z,0.94
2017-12-10T09:23:22.767Z,0.92
2017-12-10T09:24:22.751Z,0.96
2017-12-10T09:25:22.739Z,0.92
2017-12-10T09:26:22.728Z,0.96
2017-12-10T09:27:22.763Z,0.98
2017-12-10T09:28:22.700Z,1.04
2017-12-10T09:29:22.688Z,0.96
2017-12-10T09:30:22.689Z,1.08
2017-12-10T09:31:22.659Z,0.92
2017-12-10T09:32:22.650Z,1.05
2017-12-10T09:33:22.628Z,0.98
2017-12-10T09:34:22.618Z,0.95
2017-12-10T09:35:22.599Z,0.95
2017-12-10T09:36:22.614Z,0.96
2017-12-10T09:37:22.577Z,1.01
2017-12-10T09:38:22.563Z,0.95
2017-12-10T09:39:22.546Z,0.99
2017-12-10T09:40:22.532Z,1.04
2017-12-10T09:41:22.519Z,1.02
2017-12-10T09:42:22.503Z,1.04
2017-12-10T09:43:22.490Z,1.06
2017-12-10T09:44:22.483Z,1.10
2017-12-10T09:45:22.460Z,1.12
2017-12-10T09:46:22.448Z,1.16
2017-12-10T09:47:22.435Z,1.17
2017-12-10T09:48:22.448Z,1.17
2017-12-10T09:49:22.410Z,1.17
2017-12-10T09:50:22.394Z,1.17
2017-12-10T09:51:22.378Z,1.16
2017-12-10T09:52:22.368Z,1.13
2017-12-10T09:53:22.352Z,1.13
2017-12-10T09:54:22.341Z,1.14
2017-12-10T09:55:22.326Z,1.10
2017-12-10T09:56:22.312Z,1.13
2017-12-10T09:57:22.297Z,1.19
2017-12-10T09:58:22.284Z,1.10
2017-12-10T09:59:22.274Z,1.08
2017-12-10T10:00:22.256Z,1.10
2017-12-10T10:01:22.242Z,1.17
2017-12-10T10:02:22.232Z,1.12
2017-12-10T10:03:22.217Z,1.10
2017-12-10T10:04:22.202Z,1.06
2017-12-10T10:05:22.193Z,1.08
2017-12-10T10:06:22.175Z,1.04
2017-12-10T10:07:22.173Z,1.06
2017-12-10T10:08:22.148Z,1.13
2017-12-10T10:09:22.184Z,1.13
2017-12-10T10:10:22.120Z,1.14
2017-12-10T10:11:22.107Z,1.13
2017-12-10T10:12:22.092Z,1.16
2017-12-10T10:13:22.080Z,1.14
2017-12-10T10:14:22.064Z,1.13
2017-12-10T10:15:22.057Z,1.12
2017-12-10T10:16:22.047Z,1.14
2017-12-10T10:17:22.025Z,1.14
2017-12-10T10:18:22.019Z,1.12
2017-12-10T10:19:21.996Z,1.17
2017-12-10T10:20:22.024Z,1.14
2017-12-10T10:21:21.995Z,1.17
2017-12-10T10:22:21.967Z,1.12
2017-12-10T10:23:21.961Z,1.14
2017-12-10T10:24:21.935Z,1.16
2017-12-10T10:25:21.914Z,1.16
2017-12-10T10:26:21.900Z,1.17
2017-12-10T10:27:21.890Z,1.14
2017-12-10T10:28:21.873Z,1.16
2017-12-10T10:29:21.859Z,1.16
2017-12-10T10:30:21.870Z,1.17
2017-12-10T10:31:21.831Z,1.19
2017-12-10T10:32:21.817Z,1.17
2017-12-10T10:33:21.828Z,1.26
2017-12-10T10:34:21.805Z,1.22
2017-12-10T10:35:21.781Z,1.26
2017-12-10T10:36:21.764Z,1.23
2017-12-10T10:37:21.749Z,1.28
2017-12-10T10:38:21.736Z,1.22
2017-12-10T10:39:21.725Z,1.20
2017-12-10T10:40:21.718Z,1.22
2017-12-10T10:41:21.692Z,1.23
2017-12-10T10:42:21.679Z,1.19
2017-12-10T10:43:21.666Z,1.20
2017-12-10T10:44:21.653Z,1.28
2017-12-10T10:45:21.639Z,1.28
2017-12-10T10:46:21.624Z,1.24
2017-12-10T10:47:21.614Z,1.26
2017-12-10T10:48:21.602Z,1.28
2017-12-10T10:49:21.583Z,1.19
2017-12-10T10:50:21.570Z,1.23
2017-12-10T10:51:21.556Z,1.23
2017-12-10T10:52:21.545Z,1.23
2017-12-10T10:53:21.529Z,1.24
2017-12-10T10:54:21.521Z,1.23
2017-12-10T10:55:21.502Z,1.28
2017-12-10T10:56:21.486Z,1.30
2017-12-10T10:57:21.473Z,1.30
2017-12-10T10:58:21.465Z,1.28
2017-12-10T10:59:21.445Z,1.24
2017-12-10T11:00:21.432Z,1.28
2017-12-10T11:01:21.418Z,1.34
2017-12-10T11:02:21.407Z,1.32
2017-12-10T11:03:21.390Z,1.26
2017-12-10T11:04:21.376Z,1.30
2017-12-10T11:05:21.364Z,1.31
2017-12-10T11:06:21.367Z,1.30
2017-12-10T11:07:21.381Z,1.32
2017-12-10T11:08:21.322Z,1.35
2017-12-10T11:09:21.309Z,1.35
2017-12-10T11:10:21.296Z,1.28
2017-12-10T11:11:21.283Z,1.35
2017-12-10T11:12:21.266Z,1.35
2017-12-10T11:13:21.256Z,1.37
2017-12-10T11:14:21.240Z,1.40
2017-12-10T11:15:21.226Z,1.35
2017-12-10T11:16:21.212Z,1.31
2017-12-10T11:17:21.197Z,1.24
2017-12-10T11:18:21.184Z,1.30
2017-12-10T11:19:21.170Z,1.35
2017-12-10T11:20:21.155Z,1.34
2017-12-10T11:21:21.141Z,1.38
2017-12-10T11:22:21.130Z,1.41
2017-12-10T11:23:21.115Z,1.35
2017-12-10T11:24:21.109Z,1.31
2017-12-10T11:25:21.087Z,1.37
2017-12-10T11:26:21.072Z,1.32
2017-12-10T11:27:21.060Z,1.34
2017-12-10T11:28:21.046Z,1.30
2017-12-10T11:29:21.037Z,1.34
2017-12-10T11:30:21.024Z,1.34
2017-12-10T11:31:21.011Z,1.30
2017-12-10T11:32:20.992Z,1.32
2017-12-10T11:33:20.977Z,1.34
2017-12-10T11:34:20.966Z,1.41
2017-12-10T11:35:20.951Z,1.24
2017-12-10T11:36:20.936Z,1.35
2017-12-10T11:37:20.922Z,1.37
2017-12-10T11:38:20.907Z,1.41
2017-12-10T11:39:20.897Z,1.37
2017-12-10T11:40:20.880Z,1.34
2017-12-10T11:41:20.874Z,1.30
2017-12-10T11:42:20.851Z,1.42
2017-12-10T11:43:20.837Z,1.34
2017-12-10T11:44:20.824Z,1.31
2017-12-10T11:45:20.819Z,1.30
2017-12-10T11:46:20.800Z,1.32
2017-12-10T11:47:20.783Z,1.37
2017-12-10T11:48:20.768Z,1.41
2017-12-10T11:49:20.759Z,1.37
2017-12-10T11:50:20.746Z,1.42
2017-12-10T11:51:20.726Z,1.40
2017-12-10T11:52:20.716Z,1.40
2017-12-10T11:53:20.703Z,1.28
2017-12-10T11:54:20.754Z,1.28
2017-12-10T11:55:20.698Z,1.34
2017-12-10T11:56:20.659Z,1.22
2017-12-10T11:57:20.643Z,1.22
2017-12-10T11:58:20.629Z,1.24
2017-12-10T11:59:20.617Z,1.19
2017-12-10T12:00:20.601Z,1.20
2017-12-10T12:01:20.589Z,1.08
2017-12-10T12:02:20.603Z,1.08
2017-12-10T12:03:20.621Z,0.98
2017-12-10T12:04:20.547Z,1.04
2017-12-10T12:05:20.533Z,1.02
2017-12-10T12:06:20.523Z,0.96
2017-12-10T12:07:20.505Z,0.96
2017-12-10T12:08:20.490Z,0.98
2017-12-10T12:09:20.477Z,0.83
2017-12-10T12:10:20.465Z,0.87
2017-12-10T12:11:20.450Z,0.83
2017-12-10T12:12:20.435Z,0.87
2017-12-10T12:13:20.421Z,0.91
2017-12-10T12:14:20.408Z,0.87
2017-12-10T12:15:20.392Z,0.87
2017-12-10T12:16:20.380Z,0.77
2017-12-10T12:17:20.364Z,0.76
2017-12-10T12:18:20.351Z,0.74
2017-12-10T12:19:20.336Z,0.76
2017-12-10T12:20:20.324Z,0.77
2017-12-10T12:21:20.309Z,0.77
2017-12-10T12:22:20.297Z,0.77
2017-12-10T12:23:20.290Z,0.76
2017-12-10T12:24:20.267Z,0.70
2017-12-10T12:25:20.252Z,0.73
2017-12-10T12:26:20.249Z,0.80
2017-12-10T12:27:20.226Z,0.76
2017-12-10T12:28:20.209Z,0.73
2017-12-10T12:29:20.194Z,0.76
2017-12-10T12:30:20.180Z,0.77
2017-12-10T12:31:20.164Z,0.73
2017-12-10T12:32:20.186Z,0.68
2017-12-10T12:33:20.140Z,0.68
2017-12-10T12:34:20.129Z,0.70
2017-12-10T12:35:20.110Z,0.74
2017-12-10T12:36:20.094Z,0.65
2017-12-10T12:37:20.080Z,0.68
2017-12-10T12:38:20.066Z,0.84
2017-12-10T12:39:20.061Z,0.65
2017-12-10T12:40:20.037Z,0.69
2017-12-10T12:41:20.076Z,0.60
2017-12-10T12:42:20.009Z,0.76
2017-12-10T12:43:19.995Z,0.60
2017-12-10T12:44:20.006Z,0.68
2017-12-10T12:45:19.967Z,0.55
2017-12-10T12:46:19.956Z,0.73
2017-12-10T12:47:19.940Z,0.68
2017-12-10T12:48:19.931Z,0.68
2017-12-10T12:49:19.913Z,0.62
2017-12-10T12:50:19.897Z,0.60
2017-12-10T12:51:19.886Z,0.59
2017-12-10T12:52:19.870Z,0.55
2017-12-10T12:53:19.854Z,0.62
2017-12-10T12:54:19.846Z,0.59
2017-12-10T12:55:19.828Z,0.55
2017-12-10T12:56:19.813Z,0.55
2017-12-10T12:57:19.796Z,0.59
2017-12-10T12:58:19.783Z,0.56
2017-12-10T12:59:19.775Z,0.63
2017-12-10T13:00:19.754Z,0.59
2017-12-10T13:01:19.743Z,0.56
2017-12-10T13:02:19.726Z,0.58
2017-12-10T13:03:19.712Z,0.52
2017-12-10T13:04:19.698Z,0.56
2017-12-10T13:05:19.682Z,0.59
2017-12-10T13:06:19.679Z,0.55
2017-12-10T13:07:19.658Z,0.52
2017-12-10T13:08:19.647Z,0.56
2017-12-10T13:09:19.628Z,0.58
2017-12-10T13:10:19.611Z,0.55
2017-12-10T13:11:19.600Z,0.47
2017-12-10T13:12:19.585Z,0.41
2017-12-10T13:13:19.568Z,0.44
2017-12-10T13:14:19.554Z,0.49
2017-12-10T13:15:19.541Z,0.55
2017-12-10T13:16:19.527Z,0.47
2017-12-10T13:17:19.516Z,0.41
2017-12-10T13:18:19.498Z,0.47